SLI338 KIAH-MMMY
Flight info
| Callsign | SLI338 |
|---|---|
| Flight time | N/A |
| Altitude | 32000 |
| Route | RITAA7 CRP DCT FETMO DCT CAMUI UJ13 ITPIS ITPIS1A |
| Aircraft | B738/M-SDE2E3FGHIRWXY/LB1 |
Departure
| Time | N/A |
|---|---|
| Airport | George Bush Intercontinental Airport (KIAH) |
Arrival
| Time | 2026-05-09 01:07 |
|---|---|
| Airport | Monterrey International Airport (MMMY) |
| Time | Latitude | Longitude | Altitude | Speed | Heading |
|---|---|---|---|---|---|
| 2026-05-09 00:05 | 29.35566 | -95.56575 | 21461 ft | 392 kts | 233° |
| 2026-05-09 00:05 | 29.33842 | -95.59006 | 21901 ft | 394 kts | 233° |
| 2026-05-09 00:05 | 29.32112 | -95.61442 | 22332 ft | 395 kts | 233° |
| 2026-05-09 00:05 | 29.30369 | -95.63894 | 22777 ft | 396 kts | 233° |
| 2026-05-09 00:06 | 29.28626 | -95.66345 | 23194 ft | 397 kts | 233° |
| 2026-05-09 00:06 | 29.26879 | -95.68803 | 23594 ft | 399 kts | 233° |
| 2026-05-09 00:06 | 29.25124 | -95.71268 | 23978 ft | 400 kts | 232° |
| 2026-05-09 00:06 | 29.23355 | -95.73753 | 24342 ft | 402 kts | 232° |
| 2026-05-09 00:07 | 29.21583 | -95.76241 | 24710 ft | 403 kts | 232° |
| 2026-05-09 00:07 | 29.19810 | -95.78726 | 25075 ft | 404 kts | 232° |
| 2026-05-09 00:07 | 29.17962 | -95.81156 | 25419 ft | 405 kts | 230° |
| 2026-05-09 00:07 | 29.16023 | -95.83510 | 25723 ft | 408 kts | 229° |
| 2026-05-09 00:08 | 29.14066 | -95.85817 | 26022 ft | 409 kts | 228° |
| 2026-05-09 00:08 | 29.12078 | -95.88152 | 26353 ft | 409 kts | 228° |
| 2026-05-09 00:08 | 29.10090 | -95.90496 | 26644 ft | 411 kts | 229° |
| 2026-05-09 00:08 | 29.08104 | -95.92851 | 26920 ft | 412 kts | 229° |
| 2026-05-09 00:09 | 29.06119 | -95.95217 | 27227 ft | 413 kts | 229° |
| 2026-05-09 00:09 | 29.04131 | -95.97592 | 27500 ft | 414 kts | 229° |
| 2026-05-09 00:09 | 29.02141 | -95.99973 | 27769 ft | 415 kts | 229° |
| 2026-05-09 00:09 | 29.00201 | -96.02298 | 28030 ft | 416 kts | 229° |
| 2026-05-09 00:10 | 28.98205 | -96.04685 | 28348 ft | 415 kts | 229° |
| 2026-05-09 00:10 | 28.96214 | -96.07063 | 28699 ft | 413 kts | 229° |
| 2026-05-09 00:10 | 28.94235 | -96.09424 | 29121 ft | 410 kts | 229° |
| 2026-05-09 00:10 | 28.92272 | -96.11764 | 29550 ft | 407 kts | 229° |
| 2026-05-09 00:11 | 28.90316 | -96.14098 | 29932 ft | 405 kts | 229° |
| 2026-05-09 00:11 | 28.88366 | -96.16424 | 30247 ft | 405 kts | 229° |
| 2026-05-09 00:11 | 28.86437 | -96.18724 | 30599 ft | 404 kts | 229° |
| 2026-05-09 00:11 | 28.84498 | -96.21032 | 30989 ft | 402 kts | 229° |
| 2026-05-09 00:12 | 28.82568 | -96.23330 | 31388 ft | 399 kts | 230° |
| 2026-05-09 00:12 | 28.80648 | -96.25616 | 31694 ft | 399 kts | 230° |
| 2026-05-09 00:12 | 28.78726 | -96.27901 | 32004 ft | 399 kts | 230° |
| 2026-05-09 00:12 | 28.76805 | -96.30184 | 32369 ft | 397 kts | 230° |
| 2026-05-09 00:13 | 28.74898 | -96.32399 | 32726 ft | 396 kts | 229° |
| 2026-05-09 00:13 | 28.72918 | -96.34584 | 33024 ft | 396 kts | 228° |
| 2026-05-09 00:13 | 28.70913 | -96.36756 | 33202 ft | 399 kts | 228° |
| 2026-05-09 00:13 | 28.68896 | -96.38935 | 33388 ft | 400 kts | 228° |
| 2026-05-09 00:14 | 28.66868 | -96.41128 | 33626 ft | 400 kts | 228° |
| 2026-05-09 00:14 | 28.64850 | -96.43316 | 33878 ft | 400 kts | 229° |
| 2026-05-09 00:14 | 28.62828 | -96.45515 | 33857 ft | 401 kts | 229° |
| 2026-05-09 00:15 | 28.58834 | -96.49868 | 33860 ft | 398 kts | 229° |
| 2026-05-09 00:15 | 28.54838 | -96.54224 | 33857 ft | 397 kts | 229° |
| 2026-05-09 00:16 | 28.50845 | -96.58576 | 33853 ft | 397 kts | 229° |
| 2026-05-09 00:16 | 28.46854 | -96.62920 | 33852 ft | 397 kts | 229° |
| 2026-05-09 00:17 | 28.42859 | -96.67261 | 33846 ft | 397 kts | 229° |
| 2026-05-09 00:17 | 28.38859 | -96.71605 | 33843 ft | 397 kts | 229° |
| 2026-05-09 00:18 | 28.34888 | -96.75913 | 33842 ft | 398 kts | 229° |
| 2026-05-09 00:18 | 28.30871 | -96.80263 | 33838 ft | 398 kts | 229° |
| 2026-05-09 00:19 | 28.26854 | -96.84609 | 33831 ft | 399 kts | 229° |
| 2026-05-09 00:19 | 28.22838 | -96.88951 | 33830 ft | 398 kts | 228° |
| 2026-05-09 00:20 | 28.18849 | -96.93259 | 33831 ft | 398 kts | 228° |
| 2026-05-09 00:20 | 28.14833 | -96.97591 | 33821 ft | 398 kts | 228° |
| 2026-05-09 00:21 | 28.10864 | -97.01869 | 33825 ft | 399 kts | 228° |
| 2026-05-09 00:21 | 28.06839 | -97.06203 | 33825 ft | 399 kts | 228° |
| 2026-05-09 00:22 | 28.02810 | -97.10537 | 33820 ft | 399 kts | 228° |
| 2026-05-09 00:22 | 27.99072 | -97.15111 | 33828 ft | 393 kts | 240° |
| 2026-05-09 00:22 | 27.97859 | -97.17827 | 33817 ft | 392 kts | 251° |
| 2026-05-09 00:23 | 27.97021 | -97.20761 | 33830 ft | 392 kts | 252° |
| 2026-05-09 00:23 | 27.95413 | -97.26687 | 33823 ft | 394 kts | 252° |
| 2026-05-09 00:24 | 27.93763 | -97.32620 | 33826 ft | 396 kts | 252° |
| 2026-05-09 00:24 | 27.92082 | -97.38565 | 33817 ft | 397 kts | 252° |
| 2026-05-09 00:24 | 27.91017 | -97.41402 | 33800 ft | 398 kts | 240° |
| 2026-05-09 00:25 | 27.89341 | -97.43912 | 33822 ft | 402 kts | 231° |
| 2026-05-09 00:25 | 27.84822 | -97.47765 | 33825 ft | 415 kts | 214° |
| 2026-05-09 00:26 | 27.79642 | -97.50634 | 33808 ft | 416 kts | 212° |
| 2026-05-09 00:26 | 27.74409 | -97.53453 | 33811 ft | 415 kts | 212° |
| 2026-05-09 00:27 | 27.69247 | -97.56275 | 33814 ft | 414 kts | 213° |
| 2026-05-09 00:27 | 27.64072 | -97.59136 | 33814 ft | 414 kts | 213° |
| 2026-05-09 00:28 | 27.58897 | -97.62008 | 33817 ft | 413 kts | 213° |
| 2026-05-09 00:28 | 27.53759 | -97.64856 | 33812 ft | 413 kts | 213° |
| 2026-05-09 00:29 | 27.48585 | -97.67722 | 33816 ft | 413 kts | 213° |
| 2026-05-09 00:29 | 27.43423 | -97.70576 | 33817 ft | 413 kts | 213° |
| 2026-05-09 00:30 | 27.38265 | -97.73425 | 33811 ft | 413 kts | 213° |
| 2026-05-09 00:30 | 27.33102 | -97.76273 | 33813 ft | 413 kts | 213° |
| 2026-05-09 00:31 | 27.27970 | -97.79103 | 33806 ft | 414 kts | 213° |
| 2026-05-09 00:31 | 27.22793 | -97.81954 | 33807 ft | 414 kts | 212° |
| 2026-05-09 00:32 | 27.17616 | -97.84802 | 33802 ft | 414 kts | 212° |
| 2026-05-09 00:32 | 27.12436 | -97.87647 | 33798 ft | 415 kts | 212° |
| 2026-05-09 00:33 | 27.07238 | -97.90500 | 33794 ft | 415 kts | 212° |
| 2026-05-09 00:33 | 27.02072 | -97.93335 | 33799 ft | 416 kts | 212° |
| 2026-05-09 00:34 | 26.96871 | -97.96186 | 33788 ft | 417 kts | 212° |
| 2026-05-09 00:34 | 26.91649 | -97.99041 | 33786 ft | 417 kts | 212° |
| 2026-05-09 00:35 | 26.86504 | -98.01852 | 33790 ft | 417 kts | 212° |
| 2026-05-09 00:35 | 26.81323 | -98.04682 | 33785 ft | 417 kts | 212° |
| 2026-05-09 00:36 | 26.76100 | -98.07531 | 33786 ft | 417 kts | 212° |
| 2026-05-09 00:36 | 26.70880 | -98.10376 | 33787 ft | 417 kts | 212° |
| 2026-05-09 00:37 | 26.66538 | -98.12741 | 33784 ft | 417 kts | 212° |
| 2026-05-09 00:37 | 26.61318 | -98.15582 | 33787 ft | 417 kts | 212° |
| 2026-05-09 00:38 | 26.56098 | -98.18418 | 33787 ft | 417 kts | 211° |
| 2026-05-09 00:38 | 26.50864 | -98.21259 | 33790 ft | 417 kts | 211° |
| 2026-05-09 00:39 | 26.45638 | -98.24093 | 33786 ft | 418 kts | 211° |
| 2026-05-09 00:39 | 26.40413 | -98.26924 | 33786 ft | 417 kts | 211° |
| 2026-05-09 00:40 | 26.35185 | -98.29753 | 33788 ft | 417 kts | 211° |
| 2026-05-09 00:40 | 26.29958 | -98.32580 | 33798 ft | 418 kts | 211° |
| 2026-05-09 00:41 | 26.22135 | -98.36859 | 33788 ft | 415 kts | 217° |
| 2026-05-09 00:41 | 26.19953 | -98.38883 | 33814 ft | 406 kts | 231° |
| 2026-05-09 00:41 | 26.18263 | -98.41384 | 33798 ft | 404 kts | 239° |
| 2026-05-09 00:42 | 26.17006 | -98.44173 | 33791 ft | 404 kts | 250° |
| 2026-05-09 00:42 | 26.16281 | -98.47370 | 33807 ft | 405 kts | 257° |
| 2026-05-09 00:42 | 26.15829 | -98.50292 | 33661 ft | 408 kts | 258° |
| 2026-05-09 00:42 | 26.15378 | -98.53432 | 33064 ft | 411 kts | 259° |
| 2026-05-09 00:43 | 26.14929 | -98.56525 | 32354 ft | 410 kts | 258° |
| 2026-05-09 00:43 | 26.14453 | -98.59652 | 31591 ft | 411 kts | 258° |
| 2026-05-09 00:43 | 26.13958 | -98.62785 | 30802 ft | 412 kts | 258° |
| 2026-05-09 00:43 | 26.13455 | -98.65929 | 29972 ft | 414 kts | 258° |
| 2026-05-09 00:44 | 26.12859 | -98.69061 | 29113 ft | 414 kts | 253° |
| 2026-05-09 00:44 | 26.12100 | -98.72146 | 28439 ft | 411 kts | 253° |
| 2026-05-09 00:44 | 26.11333 | -98.75194 | 27812 ft | 407 kts | 253° |
| 2026-05-09 00:44 | 26.10572 | -98.78218 | 27199 ft | 404 kts | 253° |
| 2026-05-09 00:45 | 26.09820 | -98.81218 | 26596 ft | 401 kts | 253° |
| 2026-05-09 00:45 | 26.09077 | -98.84190 | 26002 ft | 397 kts | 253° |
| 2026-05-09 00:45 | 26.08345 | -98.87134 | 25411 ft | 393 kts | 253° |
| 2026-05-09 00:45 | 26.07740 | -98.90104 | 24886 ft | 390 kts | 258° |
| 2026-05-09 00:46 | 26.07329 | -98.93049 | 24660 ft | 387 kts | 259° |
| 2026-05-09 00:46 | 26.06929 | -98.96057 | 24433 ft | 400 kts | 259° |
| 2026-05-09 00:46 | 26.06520 | -98.99144 | 24182 ft | 405 kts | 259° |
| 2026-05-09 00:46 | 26.06117 | -99.02149 | 23932 ft | 402 kts | 258° |
| 2026-05-09 00:47 | 26.05701 | -99.05211 | 23679 ft | 399 kts | 258° |
| 2026-05-09 00:47 | 26.05282 | -99.08251 | 23424 ft | 396 kts | 258° |
| 2026-05-09 00:47 | 26.04861 | -99.11274 | 23171 ft | 394 kts | 258° |
| 2026-05-09 00:47 | 26.04438 | -99.14282 | 22923 ft | 393 kts | 258° |
| 2026-05-09 00:48 | 26.04016 | -99.17272 | 22677 ft | 391 kts | 258° |
| 2026-05-09 00:48 | 26.03600 | -99.20216 | 22427 ft | 390 kts | 258° |
| 2026-05-09 00:48 | 26.03180 | -99.23185 | 22279 ft | 383 kts | 258° |
| 2026-05-09 00:48 | 26.02783 | -99.26010 | 22399 ft | 362 kts | 258° |
| 2026-05-09 00:49 | 26.02388 | -99.28791 | 22116 ft | 370 kts | 258° |
| 2026-05-09 00:49 | 26.01972 | -99.31679 | 21889 ft | 384 kts | 258° |
| 2026-05-09 00:49 | 26.01546 | -99.34643 | 21644 ft | 389 kts | 258° |
| 2026-05-09 00:49 | 26.01124 | -99.37609 | 21390 ft | 387 kts | 258° |
| 2026-05-09 00:50 | 26.00706 | -99.40550 | 21134 ft | 383 kts | 258° |
| 2026-05-09 00:50 | 26.00293 | -99.43455 | 20654 ft | 379 kts | 258° |
| 2026-05-09 00:50 | 25.99885 | -99.46313 | 20117 ft | 374 kts | 258° |
| 2026-05-09 00:50 | 25.99481 | -99.49148 | 19562 ft | 370 kts | 258° |
| 2026-05-09 00:51 | 25.99072 | -99.51961 | 19024 ft | 367 kts | 257° |
| 2026-05-09 00:51 | 25.98673 | -99.54730 | 18467 ft | 361 kts | 259° |
| 2026-05-09 00:51 | 25.98369 | -99.57481 | 17911 ft | 357 kts | 259° |
| 2026-05-09 00:51 | 25.97995 | -99.60188 | 17357 ft | 353 kts | 258° |
| 2026-05-09 00:52 | 25.97579 | -99.62854 | 16831 ft | 350 kts | 257° |
| 2026-05-09 00:52 | 25.97169 | -99.65521 | 16294 ft | 351 kts | 257° |
| 2026-05-09 00:52 | 25.96710 | -99.68177 | 15743 ft | 350 kts | 258° |
| 2026-05-09 00:52 | 25.96325 | -99.70823 | 15495 ft | 340 kts | 259° |
| 2026-05-09 00:53 | 25.95965 | -99.73382 | 15330 ft | 332 kts | 259° |
| 2026-05-09 00:53 | 25.95610 | -99.75887 | 15181 ft | 324 kts | 259° |
| 2026-05-09 00:53 | 25.95254 | -99.78338 | 14971 ft | 320 kts | 259° |
| 2026-05-09 00:53 | 25.94902 | -99.80729 | 14913 ft | 308 kts | 259° |
| 2026-05-09 00:54 | 25.94617 | -99.83029 | 14757 ft | 292 kts | 261° |
| 2026-05-09 00:54 | 25.94776 | -99.85195 | 14558 ft | 276 kts | 274° |
| 2026-05-09 00:54 | 25.94392 | -99.87175 | 14504 ft | 266 kts | 236° |
| 2026-05-09 00:54 | 25.93428 | -99.88929 | 14089 ft | 277 kts | 247° |
| 2026-05-09 00:55 | 25.93254 | -99.91115 | 13103 ft | 299 kts | 282° |
| 2026-05-09 00:55 | 25.94095 | -99.93254 | 12065 ft | 314 kts | 297° |
| 2026-05-09 00:55 | 25.95123 | -99.95440 | 10992 ft | 324 kts | 294° |
| 2026-05-09 00:55 | 25.96117 | -99.97700 | 10328 ft | 328 kts | 293° |
| 2026-05-09 00:56 | 25.96969 | -99.99926 | 10339 ft | 303 kts | 292° |
| 2026-05-09 00:56 | 25.97767 | -100.01944 | 10281 ft | 287 kts | 294° |
| 2026-05-09 00:56 | 25.98605 | -100.03924 | 10163 ft | 279 kts | 294° |
| 2026-05-09 00:56 | 25.99421 | -100.05847 | 10061 ft | 275 kts | 294° |
| 2026-05-09 00:57 | 26.00268 | -100.07790 | 9911 ft | 288 kts | 296° |
| 2026-05-09 00:57 | 26.01057 | -100.09790 | 9822 ft | 274 kts | 290° |
| 2026-05-09 00:57 | 26.01767 | -100.11686 | 9697 ft | 258 kts | 293° |
| 2026-05-09 00:57 | 26.02510 | -100.13449 | 9615 ft | 248 kts | 296° |
| 2026-05-09 00:58 | 26.03283 | -100.15169 | 9546 ft | 249 kts | 297° |
| 2026-05-09 00:58 | 26.04070 | -100.16908 | 9460 ft | 254 kts | 292° |
| 2026-05-09 00:58 | 26.04571 | -100.18763 | 9282 ft | 246 kts | 284° |
| 2026-05-09 00:58 | 26.04827 | -100.20616 | 8981 ft | 243 kts | 261° |
| 2026-05-09 00:59 | 26.04186 | -100.22291 | 8662 ft | 235 kts | 226° |
| 2026-05-09 00:59 | 26.02891 | -100.23422 | 8305 ft | 243 kts | 210° |
| 2026-05-09 00:59 | 26.01444 | -100.24417 | 7887 ft | 246 kts | 208° |
| 2026-05-09 00:59 | 25.99970 | -100.25401 | 7448 ft | 245 kts | 211° |
| 2026-05-09 01:00 | 25.98495 | -100.26367 | 7031 ft | 244 kts | 210° |
| 2026-05-09 01:00 | 25.97083 | -100.27355 | 6732 ft | 241 kts | 208° |
| 2026-05-09 01:00 | 25.95652 | -100.28283 | 6421 ft | 234 kts | 211° |
| 2026-05-09 01:00 | 25.94255 | -100.29219 | 6120 ft | 232 kts | 209° |
| 2026-05-09 01:01 | 25.92905 | -100.30115 | 5841 ft | 219 kts | 210° |
| 2026-05-09 01:01 | 25.91639 | -100.30956 | 5579 ft | 205 kts | 206° |
| 2026-05-09 01:01 | 25.90348 | -100.31250 | 5312 ft | 182 kts | 161° |
| 2026-05-09 01:01 | 25.89227 | -100.30631 | 5278 ft | 190 kts | 149° |
| 2026-05-09 01:02 | 25.88183 | -100.29744 | 5560 ft | 181 kts | 129° |
| 2026-05-09 01:02 | 25.87538 | -100.28550 | 5187 ft | 178 kts | 116° |
| 2026-05-09 01:02 | 25.86908 | -100.27402 | 4677 ft | 173 kts | 121° |
| 2026-05-09 01:02 | 25.86295 | -100.26286 | 4406 ft | 169 kts | 119° |
| 2026-05-09 01:03 | 25.85682 | -100.25202 | 4197 ft | 167 kts | 117° |
| 2026-05-09 01:03 | 25.85110 | -100.24090 | 3936 ft | 165 kts | 117° |
| 2026-05-09 01:03 | 25.84556 | -100.23000 | 3706 ft | 159 kts | 117° |
| 2026-05-09 01:03 | 25.83999 | -100.21942 | 3508 ft | 159 kts | 116° |
| 2026-05-09 01:04 | 25.83481 | -100.20861 | 3276 ft | 159 kts | 121° |
| 2026-05-09 01:04 | 25.82855 | -100.19854 | 3074 ft | 159 kts | 118° |
| 2026-05-09 01:04 | 25.82313 | -100.18787 | 2857 ft | 159 kts | 119° |
| 2026-05-09 01:04 | 25.81729 | -100.17766 | 2640 ft | 157 kts | 119° |
| 2026-05-09 01:05 | 25.81164 | -100.16720 | 2423 ft | 158 kts | 121° |
| 2026-05-09 01:05 | 25.80596 | -100.15684 | 2207 ft | 157 kts | 121° |
| 2026-05-09 01:05 | 25.79475 | -100.13645 | 1773 ft | 153 kts | 120° |
| 2026-05-09 01:06 | 25.78928 | -100.12651 | 1566 ft | 151 kts | 121° |
| 2026-05-09 01:06 | 25.78402 | -100.11698 | 1322 ft | 138 kts | 120° |
| 2026-05-09 01:06 | 25.77947 | -100.10877 | 1271 ft | 100 kts | 120° |
| 2026-05-09 01:06 | 25.77617 | -100.10284 | 1265 ft | 83 kts | 122° |
| 2026-05-09 01:07 | 25.77385 | -100.09883 | 1260 ft | 26 kts | 128° |
| 2026-05-09 01:07 | 25.77276 | -100.09728 | 1253 ft | 31 kts | 141° |
| 2026-05-09 01:07 | 25.77121 | -100.09795 | 1254 ft | 29 kts | 281° |
| 2026-05-09 01:07 | 25.77238 | -100.09965 | 1261 ft | 27 kts | 303° |
| 2026-05-09 01:08 | 25.77337 | -100.10133 | 1262 ft | 25 kts | 303° |
| 2026-05-09 01:08 | 25.77415 | -100.10298 | 1266 ft | 24 kts | 295° |
| 2026-05-09 01:08 | 25.77486 | -100.10455 | 1272 ft | 23 kts | 307° |
| 2026-05-09 01:08 | 25.77558 | -100.10601 | 1277 ft | 22 kts | 263° |
| 2026-05-09 01:09 | 25.77507 | -100.10755 | 1276 ft | 22 kts | 231° |
| 2026-05-09 01:09 | 25.77419 | -100.10882 | 1277 ft | 18 kts | 264° |
| 2026-05-09 01:09 | 25.77443 | -100.10957 | 1275 ft | 9 kts | 276° |
| 2026-05-09 01:09 | 25.77445 | -100.11018 | 1275 ft | 0 kts | 274° |
| 2026-05-09 01:10 | 25.77445 | -100.11019 | 1275 ft | 0 kts | 274° |